Time;durP1;ratioP1;P1;durP2;ratioP2;P2;SDS_P1;SDS_P2;PMS_P1;PMS_P2;Temp;Humidity;BMP_temperature;BMP_pressure;BME280_temperature;BME280_humidity;BME280_pressure;Samples;Min_cycle;Max_cycle;Signal;HPM_P1;HPM_P2
2022/08/12 00:44:14;;;;;;;3.47;2.20;;;;;;;22.12;61.09;102044.44;5021787;28;20222;-73
2022/08/12 00:46:45;;;;;;;;;;;;;;;22.11;61.04;102040.09;5022433;28;20269;-73
2022/08/12 00:49:11;;;;;;;1.98;1.75;;;;;;;22.09;61.05;102044.69;5026093;28;19905;-73
2022/08/12 00:54:22;;;;;;;2.40;1.95;;;;;;;22.03;61.19;102044.16;5025455;28;20044;-73
2022/08/12 00:56:47;;;;;;;3.17;2.00;;;;;;;22.02;61.31;102042.44;5008334;28;20061;-73
2022/08/12 00:59:13;;;;;;;1.95;1.85;;;;;;;22.01;61.45;102039.88;5025387;28;20038;-73
2022/08/12 01:01:43;;;;;;;1.95;1.85;;;;;;;21.98;61.43;102037.44;5024499;28;20038;-73
2022/08/12 01:12:32;;;;;;;2.95;2.10;;;;;;;21.88;61.73;102050.53;5024739;28;20077;-73
2022/08/12 01:15:00;;;;;;;3.90;2.17;;;;;;;21.86;61.65;102049.81;5024883;28;20041;-73
2022/08/12 01:17:25;;;;;;;2.17;2.08;;;;;;;21.85;61.71;102045.44;5025619;28;20316;-73
2022/08/12 01:19:54;;;;;;;2.08;1.98;;;;;;;21.83;61.43;102050.03;5023626;28;20036;-73
2022/08/12 01:22:33;;;;;;;2.42;2.22;;;;;;;21.81;61.49;102050.13;5024610;28;20089;-73
2022/08/12 01:25:05;;;;;;;;;;;;;;;21.81;61.62;102055.47;5024126;28;20348;-73
2022/08/12 01:27:33;;;;;;;2.35;2.10;;;;;;;21.79;61.59;102049.41;5024705;28;19917;-73
2022/08/12 01:30:01;;;;;;;2.30;2.10;;;;;;;21.78;61.62;102045.00;5024460;28;20037;-73
2022/08/12 01:32:27;;;;;;;2.25;2.08;;;;;;;21.76;61.47;102049.59;5024296;28;20063;-73
2022/08/12 01:34:59;;;;;;;2.35;2.10;;;;;;;21.74;61.74;102043.53;5056173;28;20038;-74
2022/08/12 01:37:25;;;;;;;2.42;2.00;;;;;;;21.73;61.90;102043.63;5024561;28;20413;-73
2022/08/12 01:39:54;;;;;;;2.40;2.20;;;;;;;21.70;61.63;102044.66;5024386;28;20111;-73
2022/08/12 01:42:21;;;;;;;2.25;2.05;;;;;;;21.69;61.71;102042.13;5022999;28;20089;-73
2022/08/12 01:44:49;;;;;;;2.25;2.15;;;;;;;21.65;62.02;102037.00;5023296;28;20026;-73
2022/08/12 01:47:42;;;;;;;2.20;2.00;;;;;;;21.63;62.30;102033.59;5023763;28;20044;-73
2022/08/12 01:50:26;;;;;;;2.78;2.00;;;;;;;21.58;62.23;102027.72;5016172;28;20334;-72
2022/08/12 01:53:12;;;;;;;2.50;2.22;;;;;;;21.54;62.41;102030.69;5023669;28;20107;-73
2022/08/12 01:55:46;;;;;;;2.63;2.20;;;;;;;21.52;62.66;102030.81;5023952;28;20333;-75
2022/08/12 01:58:24;;;;;;;2.35;2.15;;;;;;;21.49;62.64;102024.84;5022734;28;20029;-73
2022/08/12 02:01:10;;;;;;;2.63;2.40;;;;;;;21.44;62.90;102019.78;5023207;28;20092;-73
2022/08/12 02:13:26;;;;;;;2.88;2.58;;;;;;;21.23;63.69;102017.63;5022816;28;20092;-73
2022/08/12 02:15:56;;;;;;;6.88;2.70;;;;;;;21.20;63.72;102015.16;5023644;28;20058;-73
2022/08/12 02:18:37;;;;;;;3.47;2.55;;;;;;;21.17;64.13;102012.69;5022064;28;20080;-73
2022/08/12 02:21:50;;;;;;;7.50;3.10;;;;;;;21.13;64.14;102013.00;5022804;28;20045;-76
2022/08/12 02:24:20;;;;;;;3.88;2.78;;;;;;;21.10;64.16;102016.72;5004325;28;20104;-76
2022/08/12 02:26:47;;;;;;;4.07;2.45;;;;;;;21.10;64.37;102016.72;5033331;28;20021;-76
2022/08/12 02:29:14;;;;;;;3.13;2.63;;;;;;;21.08;64.07;102022.16;5033234;28;20073;-76
2022/08/12 02:31:42;;;;;;;2.80;2.60;;;;;;;21.07;64.41;102014.28;5018811;28;20025;-76
2022/08/12 02:34:08;;;;;;;2.65;2.45;;;;;;;21.07;64.01;102020.44;5017417;28;20541;-76
2022/08/12 02:36:36;;;;;;;3.03;2.72;;;;;;;21.06;64.15;102015.22;5018264;28;20085;-76
2022/08/12 02:39:03;;;;;;;2.92;2.72;;;;;;;21.05;64.23;102013.53;5017412;28;20040;-76
2022/08/12 02:41:31;;;;;;;4.22;2.90;;;;;;;21.01;64.45;102007.56;5017271;28;20060;-76
2022/08/12 02:44:06;;;;;;;5.05;3.25;;;;;;;20.98;64.75;102006.91;5018223;28;20014;-76
2022/08/12 02:46:33;;;;;;;2.88;2.67;;;;;;;20.94;64.79;102002.72;5018448;28;20198;-76
2022/08/12 02:49:24;;;;;;;3.40;2.85;;;;;;;20.88;65.18;101996.84;5018328;28;20483;-76
2022/08/12 02:51:51;;;;;;;3.47;3.10;;;;;;;20.85;65.15;101998.88;5018394;28;20243;-76
2022/08/12 02:54:17;;;;;;;3.83;2.88;;;;;;;20.81;65.44;102000.88;5016265;28;20072;-76
2022/08/12 02:56:43;;;;;;;3.53;3.22;;;;;;;20.74;65.52;102001.34;5020120;28;20029;-73
2022/08/12 02:59:13;;;;;;;3.30;3.10;;;;;;;20.71;65.65;102005.94;5022385;28;20091;-73
2022/08/12 03:01:52;;;;;;;3.65;3.10;;;;;;;20.66;66.05;102004.53;5022874;28;20350;-73
2022/08/12 03:04:45;;;;;;;3.33;3.10;;;;;;;20.64;65.95;101993.97;5022452;28;20034;-75
2022/08/12 03:07:23;;;;;;;3.80;3.50;;;;;;;20.64;65.85;101993.13;5020201;28;20042;-73
2022/08/12 03:10:10;;;;;;;3.60;3.25;;;;;;;20.61;66.00;101990.66;5022242;28;20030;-73
2022/08/12 03:12:42;;;;;;;4.55;3.22;;;;;;;20.58;66.06;101990.84;5020741;28;20021;-73
2022/08/12 03:15:13;;;;;;;4.15;3.85;;;;;;;20.53;66.27;101988.47;5022163;28;20052;-73
2022/08/12 03:17:55;;;;;;;5.63;3.67;;;;;;;20.50;66.32;101989.53;5022742;28;20300;-75
2022/08/12 03:20:22;;;;;;;4.95;3.45;;;;;;;20.47;66.36;101988.88;5021116;28;20335;-73
2022/08/12 03:22:50;;;;;;;5.40;3.22;;;;;;;20.42;66.61;101989.16;5022016;28;20037;-73
2022/08/12 03:25:25;;;;;;;8.55;3.78;;;;;;;20.34;66.63;101988.81;5020595;28;20045;-73
2022/08/12 03:27:56;;;;;;;5.80;4.30;;;;;;;20.29;67.00;101983.78;5004182;28;20244;-73
2022/08/12 03:30:24;;;;;;;5.22;3.65;;;;;;;20.27;67.02;101991.00;5021592;28;20061;-73
2022/08/12 03:32:51;;;;;;;3.83;3.45;;;;;;;20.24;67.24;101988.53;5021868;28;20085;-73
2022/08/12 03:35:24;;;;;;;3.97;3.20;;;;;;;20.23;67.16;101981.50;5022013;28;20029;-73
2022/08/12 03:37:50;;;;;;;5.38;3.20;;;;;;;20.25;66.79;101984.94;5022250;28;20041;-73
2022/08/12 03:41:33;;;;;;;3.33;3.00;;;;;;;20.28;66.65;101989.19;5020327;28;20066;-73
2022/08/12 04:02:23;;;;;;;4.60;4.03;;;;;;;20.09;67.56;101976.22;5021222;28;20032;-73
2022/08/12 04:04:49;;;;;;;4.70;3.75;;;;;;;20.06;67.36;101971.91;5021185;28;20156;-73
2022/08/12 04:07:15;;;;;;;4.45;3.63;;;;;;;20.04;67.68;101971.16;5003550;28;20050;-73
2022/08/12 04:09:43;;;;;;;7.72;4.05;;;;;;;20.00;67.84;101974.97;5019833;28;20026;-73
2022/08/12 04:14:57;;;;;;;6.25;3.97;;;;;;;19.91;68.52;101972.91;5020972;28;19928;-73
2022/08/12 04:17:26;;;;;;;13.05;3.90;;;;;;;19.87;68.62;101964.25;5051592;28;20326;-73
2022/08/12 04:19:54;;;;;;;7.22;4.60;;;;;;;19.87;68.72;101972.22;5019564;28;20034;-73
2022/08/12 04:22:21;;;;;;;6.25;3.70;;;;;;;19.85;69.06;101971.47;5019259;28;20053;-73
2022/08/12 04:24:46;;;;;;;4.85;3.33;;;;;;;19.85;68.93;101971.47;5017605;28;20108;-73
2022/08/12 04:27:12;;;;;;;4.25;3.83;;;;;;;19.87;68.72;101982.03;5017590;28;20042;-73
2022/08/12 04:29:38;;;;;;;3.97;3.50;;;;;;;19.86;68.93;101978.47;5019033;28;20120;-74
2022/08/12 04:32:05;;;;;;;4.00;3.70;;;;;;;19.87;68.74;101982.03;5020720;28;20080;-73
2022/08/12 04:34:30;;;;;;;3.88;3.58;;;;;;;19.91;68.64;101980.88;5038293;28;20036;-73
2022/08/12 04:36:56;;;;;;;3.75;3.22;;;;;;;19.94;68.39;101978.03;5038711;28;20263;-73
2022/08/12 04:39:22;;;;;;;5.30;3.60;;;;;;;19.98;67.93;101970.72;5020534;28;20051;-74
2022/08/12 04:41:50;;;;;;;4.72;3.03;;;;;;;20.02;67.65;101985.53;5019120;28;20079;-73
2022/08/12 04:44:15;;;;;;;3.63;3.33;;;;;;;20.05;67.42;101974.69;5018836;28;20038;-74
2022/08/12 04:46:41;;;;;;;4.50;3.80;;;;;;;20.07;67.34;101978.97;5018580;28;20057;-73
2022/08/12 04:49:07;;;;;;;3.55;3.22;;;;;;;20.07;67.73;101981.63;5017803;28;20602;-73
2022/08/12 04:51:33;;;;;;;4.25;3.85;;;;;;;20.06;67.95;101982.56;5018547;28;20091;-73
2022/08/12 04:54:00;;;;;;;3.38;3.08;;;;;;;20.06;67.94;101977.25;5018571;28;20057;-73
2022/08/12 04:56:26;;;;;;;4.00;3.35;;;;;;;20.08;68.05;101978.03;5017127;28;20276;-73
2022/08/12 04:58:52;;;;;;;3.58;3.25;;;;;;;20.06;67.61;101977.25;5017291;28;20068;-73
2022/08/12 05:01:19;;;;;;;3.97;3.67;;;;;;;20.08;67.83;101982.47;5000770;28;20329;-74
2022/08/12 05:03:44;;;;;;;4.28;3.97;;;;;;;20.04;68.17;101984.47;5017350;28;20030;-74
2022/08/12 05:06:09;;;;;;;4.47;4.07;;;;;;;19.99;68.66;101977.72;5017148;28;20052;-74
2022/08/12 05:08:35;;;;;;;4.05;3.60;;;;;;;19.97;68.63;101980.47;5018094;28;20100;-74
2022/08/12 05:11:01;;;;;;;4.13;3.75;;;;;;;19.94;68.82;101976.22;5016098;28;20065;-74
2022/08/12 05:13:30;;;;;;;7.22;4.22;;;;;;;19.91;69.03;101970.25;5017828;28;20034;-74
2022/08/12 05:15:56;;;;;;;6.55;4.32;;;;;;;19.86;69.35;101972.31;5018601;28;20092;-74
2022/08/12 05:18:22;;;;;;;9.13;4.95;;;;;;;19.81;69.57;101971.75;5016659;28;20093;-74
2022/08/12 05:20:48;;;;;;;8.23;4.35;;;;;;;19.79;70.00;101981.63;5000879;28;20152;-73
2022/08/12 05:23:16;;;;;;;5.78;4.22;;;;;;;19.74;69.95;101985.44;5017729;28;20057;-74
2022/08/12 05:25:43;;;;;;;;;;;;;;;19.72;70.25;101989.09;5017693;28;20026;-74
2022/08/12 05:28:09;;;;;;;7.25;4.15;;;;;;;19.69;70.26;101984.81;5017777;28;19967;-74
2022/08/12 05:30:35;;;;;;;5.47;3.55;;;;;;;19.73;70.26;101991.69;5017238;28;20358;-74
2022/08/12 05:33:05;;;;;;;4.20;3.90;;;;;;;19.75;70.23;101991.59;5017693;28;20064;-74
2022/08/12 05:35:37;;;;;;;10.00;4.28;;;;;;;19.75;70.11;101996.91;5019901;28;20049;-73
2022/08/12 05:40:47;;;;;;;4.97;4.10;;;;;;;19.70;70.58;101991.84;5020291;28;20409;-74
2022/08/12 05:43:13;;;;;;;11.82;4.47;;;;;;;19.67;70.82;102001.81;5020605;28;20050;-74
2022/08/12 05:45:38;;;;;;;8.02;4.90;;;;;;;19.65;70.98;102001.91;5020895;28;20037;-74
2022/08/12 05:48:05;;;;;;;6.28;4.18;;;;;;;19.65;71.01;102004.56;5019403;28;20041;-74
2022/08/12 05:50:30;;;;;;;4.93;4.53;;;;;;;19.65;71.24;102003.72;5019695;28;20357;-74
2022/08/12 05:52:56;;;;;;;6.05;5.07;;;;;;;19.64;71.49;102018.78;5020822;28;20041;-74
2022/08/12 05:55:22;;;;;;;5.15;4.75;;;;;;;19.63;71.43;102003.81;5020497;28;20029;-73
2022/08/12 05:57:54;;;;;;;9.23;5.10;;;;;;;19.60;71.59;102019.91;5020925;28;20034;-74
2022/08/12 06:00:20;;;;;;;5.05;4.55;;;;;;;19.62;71.50;102010.03;5020703;28;20041;-74
2022/08/12 06:02:46;;;;;;;5.80;5.00;;;;;;;19.65;71.50;102001.06;5020886;28;20234;-74
2022/08/12 06:05:11;;;;;;;9.00;5.03;;;;;;;19.63;71.62;102001.16;5019908;28;20040;-74
2022/08/12 06:07:44;;;;;;;5.43;4.90;;;;;;;19.63;71.70;101994.94;5019230;28;20327;-73
2022/08/12 06:10:10;;;;;;;5.90;4.60;;;;;;;19.65;71.71;101996.59;5020198;28;20092;-74
2022/08/12 06:12:35;;;;;;;5.35;4.78;;;;;;;19.66;71.49;101992.97;5020618;28;20037;-74
2022/08/12 06:15:01;;;;;;;8.30;5.15;;;;;;;19.70;71.59;101998.94;5018903;28;20087;-73
2022/08/12 06:17:29;;;;;;;12.93;5.13;;;;;;;19.69;71.74;101992.78;5020088;28;20037;-74
2022/08/12 06:19:57;;;;;;;8.13;5.40;;;;;;;19.72;71.53;101995.28;5035472;28;20049;-74
2022/08/12 06:22:24;;;;;;;5.32;4.82;;;;;;;19.74;71.88;101996.06;5019819;28;20087;-73
2022/08/12 06:24:52;;;;;;;5.38;4.97;;;;;;;19.77;71.35;102000.31;5020161;28;20041;-74
2022/08/12 06:27:18;;;;;;;9.02;5.30;;;;;;;19.80;71.33;101999.28;5020181;28;20117;-74
2022/08/12 06:29:43;;;;;;;7.72;5.03;;;;;;;19.84;71.67;101995.50;5018808;28;20061;-74
2022/08/12 06:32:09;;;;;;;6.97;5.35;;;;;;;19.87;71.73;101990.00;5018096;28;20330;-74
2022/08/12 06:34:35;;;;;;;5.60;5.10;;;;;;;19.93;71.39;101994.91;5035812;28;20043;-74
2022/08/12 06:37:00;;;;;;;5.25;4.75;;;;;;;19.93;70.29;101985.13;5038186;28;20034;-73
2022/08/12 06:39:26;;;;;;;6.57;4.88;;;;;;;19.96;70.13;101986.75;5039200;28;20037;-74
2022/08/12 06:44:35;;;;;;;6.45;4.40;;;;;;;20.01;69.64;101995.31;5026936;28;20048;-74
2022/08/12 06:47:00;;;;;;;5.32;4.78;;;;;;;20.06;69.54;101995.00;5038185;28;20060;-74
2022/08/12 06:49:27;;;;;;;6.95;4.95;;;;;;;20.09;69.37;101987.69;5037840;28;20060;-73
2022/08/12 06:51:54;;;;;;;5.43;4.40;;;;;;;20.11;68.94;101988.44;5039251;28;20043;-73
2022/08/12 06:54:20;;;;;;;5.38;4.40;;;;;;;20.16;68.86;101992.66;5018415;28;20112;-74
2022/08/12 06:56:45;;;;;;;7.95;4.75;;;;;;;20.19;68.83;101989.78;5032523;28;20033;-74
2022/08/12 06:59:13;;;;;;;5.00;4.60;;;;;;;20.23;68.77;101992.16;5037516;28;20064;-74
2022/08/12 07:01:39;;;;;;;14.68;5.20;;;;;;;20.26;68.49;101986.63;5039557;28;20072;-74
2022/08/12 07:04:04;;;;;;;5.43;4.93;;;;;;;20.30;68.65;101990.81;5037830;28;20092;-74
2022/08/12 07:06:30;;;;;;;9.43;4.63;;;;;;;20.33;68.25;101987.09;5037889;28;20401;-74
2022/08/12 07:08:56;;;;;;;8.48;4.82;;;;;;;20.39;68.52;101988.50;5039681;28;20040;-74
2022/08/12 07:11:22;;;;;;;8.75;4.63;;;;;;;20.44;68.37;101986.41;5039161;28;20033;-74
2022/08/12 07:13:51;;;;;;;6.30;4.40;;;;;;;20.47;67.63;101986.22;5039514;28;20033;-74
2022/08/12 07:16:18;;;;;;;6.07;3.85;;;;;;;20.52;67.64;101982.31;5039319;28;20048;-74
2022/08/12 07:18:52;;;;;;;6.20;4.40;;;;;;;20.59;67.53;101989.88;5039265;28;20044;-74
2022/08/12 07:21:18;;;;;;;6.22;3.72;;;;;;;20.64;67.45;101985.16;5037779;28;20048;-74
2022/08/12 07:23:44;;;;;;;9.38;4.88;;;;;;;20.69;67.57;101989.22;5037722;28;20044;-74
2022/08/12 07:26:14;;;;;;;5.10;4.60;;;;;;;20.74;67.01;101982.72;5037807;28;20092;-74
2022/08/12 07:28:42;;;;;;;6.68;4.10;;;;;;;20.78;66.35;101981.59;5038962;28;20045;-74
2022/08/12 07:31:11;;;;;;;6.57;4.38;;;;;;;20.80;66.14;101990.31;5037750;28;20025;-73
2022/08/12 07:33:39;;;;;;;8.43;4.65;;;;;;;20.85;65.83;101991.72;5024680;28;20044;-74
2022/08/12 07:36:07;;;;;;;7.55;4.43;;;;;;;20.91;65.16;101993.13;5034611;28;20033;-73
2022/08/12 07:38:38;;;;;;;4.43;4.03;;;;;;;20.95;65.01;101993.78;5039650;28;20039;-73
2022/08/12 07:41:10;;;;;;;10.88;4.30;;;;;;;21.01;63.90;101996.91;5040366;28;20269;-74
2022/08/12 07:43:41;;;;;;;4.80;3.67;;;;;;;21.04;64.07;102001.16;5040627;28;20041;-73
2022/08/12 07:46:09;;;;;;;5.90;4.28;;;;;;;21.09;63.66;101999.03;5040537;28;20041;-74
2022/08/12 07:48:44;;;;;;;4.75;3.95;;;;;;;21.16;63.43;101995.00;5040304;28;20236;-73
2022/08/12 07:51:10;;;;;;;3.95;3.55;;;;;;;21.21;63.10;101981.38;5040594;28;20082;-73
2022/08/12 07:53:37;;;;;;;4.65;3.83;;;;;;;21.28;62.98;101985.31;5040067;28;20049;-73
2022/08/12 07:56:04;;;;;;;9.90;3.67;;;;;;;21.34;62.84;101992.91;5039824;28;20248;-73
2022/08/12 07:58:30;;;;;;;4.13;3.50;;;;;;;21.40;62.12;102000.47;5038187;28;20573;-74
2022/08/12 08:00:59;;;;;;;5.93;3.40;;;;;;;21.44;62.08;101996.63;5040154;28;20025;-74
2022/08/12 08:03:26;;;;;;;4.47;3.70;;;;;;;21.55;60.81;102003.09;5040574;28;20084;-73
2022/08/12 08:05:52;;;;;;;4.13;3.70;;;;;;;21.65;60.36;101997.00;5040207;28;20115;-74
2022/08/12 08:08:21;;;;;;;3.90;3.60;;;;;;;21.71;60.55;102003.72;5038715;28;20315;-74
2022/08/12 08:10:47;;;;;;;7.55;4.05;;;;;;;21.75;60.31;101999.88;5039879;28;20037;-74
2022/08/12 08:13:14;;;;;;;4.30;3.53;;;;;;;21.83;59.96;102002.88;5039259;28;20037;-74
2022/08/12 08:15:39;;;;;;;4.68;4.03;;;;;;;21.88;59.80;101996.38;5040108;28;20034;-74
2022/08/12 08:18:10;;;;;;;10.75;4.25;;;;;;;21.91;59.61;101996.16;5038313;28;20324;-74
2022/08/12 08:20:44;;;;;;;6.20;3.92;;;;;;;21.96;59.23;102000.22;5039716;28;20033;-74
2022/08/12 08:23:16;;;;;;;8.93;4.20;;;;;;;22.02;59.18;101999.75;5039715;28;20025;-74
2022/08/12 08:25:43;;;;;;;6.97;4.13;;;;;;;22.10;58.43;101999.22;5039901;28;20013;-73
2022/08/12 08:28:11;;;;;;;23.92;4.38;;;;;;;22.14;58.05;102006.06;5039950;28;20041;-74
2022/08/12 08:30:38;;;;;;;;;;;;;;;22.15;58.69;101999.72;5040410;28;20109;-74
2022/08/12 08:33:08;;;;;;;6.28;3.20;;;;;;;22.20;58.91;102007.41;5038316;28;20258;-74
2022/08/12 08:35:33;;;;;;;6.90;3.80;;;;;;;22.28;57.89;102001.56;5024822;28;20033;-74
2022/08/12 08:38:16;;;;;;;4.50;3.72;;;;;;;22.31;58.34;102004.03;5039461;28;20032;-74
2022/08/12 08:43:28;;;;;;;6.53;3.90;;;;;;;22.47;57.72;101999.28;5039378;28;20395;-74
2022/08/12 08:45:55;;;;;;;5.90;3.67;;;;;;;22.52;57.91;102002.47;5039884;28;20033;-74
2022/08/12 08:48:21;;;;;;;7.53;3.85;;;;;;;22.58;57.50;102004.66;5039336;28;20108;-74
2022/08/12 08:50:46;;;;;;;7.57;3.72;;;;;;;22.65;57.56;101996.19;5039616;28;20021;-74
2022/08/12 08:53:15;;;;;;;4.20;3.10;;;;;;;22.66;58.05;101996.09;5039992;28;20149;-74
2022/08/12 08:55:41;;;;;;;;;;;;;;;22.69;57.51;102000.38;5040463;28;20321;-74
2022/08/12 08:58:07;;;;;;;5.05;3.45;;;;;;;22.78;57.19;101997.03;5038679;28;19913;-74
2022/08/12 09:00:34;;;;;;;4.43;3.30;;;;;;;22.80;57.36;101997.75;5039697;28;20322;-74
2022/08/12 09:03:02;;;;;;;4.82;3.55;;;;;;;22.89;57.39;102002.41;5054828;28;20048;-74
2022/08/12 09:05:28;;;;;;;5.80;3.40;;;;;;;23.05;56.62;101996.81;5038070;28;20036;-74
2022/08/12 09:07:55;;;;;;;4.50;3.55;;;;;;;23.10;56.14;102004.47;5040143;28;20217;-74
2022/08/12 09:10:20;;;;;;;6.90;3.75;;;;;;;23.14;55.99;101997.91;5026306;28;20045;-74
2022/08/12 09:15:31;;;;;;;7.15;3.47;;;;;;;23.33;56.25;102006.22;5043372;28;20064;-74
2022/08/12 09:17:58;;;;;;;4.78;4.03;;;;;;;23.43;56.48;102000.19;5042281;28;20304;-74
2022/08/12 09:20:26;;;;;;;9.52;3.85;;;;;;;23.51;55.78;101995.94;5042527;28;20111;-74
2022/08/12 09:22:53;;;;;;;8.20;3.58;;;;;;;23.50;56.30;101991.59;5042886;28;20232;-74
2022/08/12 09:25:20;;;;;;;6.15;3.80;;;;;;;23.54;56.01;101990.38;5043400;28;20021;-74
2022/08/12 09:27:46;;;;;;;4.13;3.55;;;;;;;23.69;54.93;101991.00;5042172;28;20049;-74
2022/08/12 09:30:14;;;;;;;3.58;3.28;;;;;;;23.77;53.93;101990.38;5043718;28;20045;-74
2022/08/12 09:32:41;;;;;;;4.85;3.25;;;;;;;23.82;53.31;101990.91;5023453;28;20433;-74
2022/08/12 09:35:07;;;;;;;7.70;3.53;;;;;;;23.88;53.13;101981.53;5023991;28;20034;-74
2022/08/12 09:37:32;;;;;;;10.05;3.38;;;;;;;24.01;52.46;101984.09;5043314;28;20047;-74
2022/08/12 09:39:58;;;;;;;4.28;3.40;;;;;;;24.05;52.83;101975.72;5041982;28;20029;-74
2022/08/12 09:45:22;;;;;;;7.10;3.33;;;;;;;24.12;52.87;101981.41;5043861;28;20040;-74
2022/08/12 09:47:49;;;;;;;4.13;2.92;;;;;;;24.19;51.63;101974.59;5044070;28;20037;-74
2022/08/12 09:50:16;;;;;;;4.70;3.30;;;;;;;24.24;51.88;101980.41;5043248;28;20045;-74
2022/08/12 09:52:44;;;;;;;10.65;3.30;;;;;;;24.34;51.88;101977.88;5042361;28;20052;-74
2022/08/12 09:55:10;;;;;;;4.43;3.30;;;;;;;24.39;52.14;101969.44;5043167;28;20335;-74
2022/08/12 09:57:36;;;;;;;3.58;3.28;;;;;;;24.50;51.85;101970.28;5042212;28;20445;-74
2022/08/12 10:00:03;;;;;;;5.30;3.55;;;;;;;24.54;52.28;101970.91;5043115;28;20232;-74
2022/08/12 10:02:29;;;;;;;3.50;3.20;;;;;;;24.63;52.17;101964.78;5041572;28;20021;-74
2022/08/12 10:04:56;;;;;;;10.00;3.13;;;;;;;24.74;52.15;101961.22;5030381;28;20307;-74
2022/08/12 10:07:22;;;;;;;8.23;3.17;;;;;;;24.75;51.43;101957.56;5041431;28;20041;-74
2022/08/12 10:09:49;;;;;;;6.55;2.80;;;;;;;24.81;51.87;101958.88;5041565;28;20060;-74
2022/08/12 10:14:58;;;;;;;7.18;3.22;;;;;;;24.92;51.64;101958.81;5031173;28;20048;-74
2022/08/12 10:17:24;;;;;;;4.90;3.53;;;;;;;25.00;50.74;101950.97;5042650;28;20297;-74
2022/08/12 10:19:51;;;;;;;3.20;2.90;;;;;;;25.09;49.09;101950.19;5041343;28;20072;-74
2022/08/12 10:22:16;;;;;;;7.75;2.90;;;;;;;25.12;49.89;101949.06;5041573;28;20041;-74
2022/08/12 10:24:44;;;;;;;7.07;2.97;;;;;;;25.21;48.68;101942.09;5041690;28;20044;-74
2022/08/12 10:29:53;;;;;;;2.90;2.60;;;;;;;25.39;47.34;101942.38;5043287;28;20072;-74
2022/08/12 10:32:20;;;;;;;3.15;2.67;;;;;;;25.41;47.71;101933.22;5041442;28;20423;-75
2022/08/12 10:34:47;;;;;;;4.63;3.05;;;;;;;25.44;48.02;101937.47;5031229;28;20104;-74
2022/08/12 10:37:13;;;;;;;4.20;2.83;;;;;;;25.47;48.22;101935.38;5041721;28;20053;-74
2022/08/12 10:39:39;;;;;;;3.20;2.80;;;;;;;25.57;47.83;101932.72;5041655;28;20051;-74
2022/08/12 10:44:59;;;;;;;4.90;2.92;;;;;;;25.73;48.00;101936.75;5043013;28;20040;-74
2022/08/12 10:47:29;;;;;;;4.30;2.97;;;;;;;25.77;47.64;101933.66;5041264;28;20397;-74
2022/08/12 10:49:54;;;;;;;4.05;2.80;;;;;;;25.86;46.43;101930.16;5042483;28;20094;-74
2022/08/12 10:52:23;;;;;;;12.23;2.88;;;;;;;25.87;46.02;101925.66;5041541;28;20037;-75
2022/08/12 10:54:49;;;;;;;5.03;2.67;;;;;;;25.95;45.51;101919.63;5041560;28;20036;-74
2022/08/12 10:57:15;;;;;;;3.70;2.75;;;;;;;25.96;45.97;101922.19;5041564;28;20045;-75
2022/08/12 10:59:41;;;;;;;3.33;2.50;;;;;;;26.07;44.21;101913.16;5041463;28;20033;-74
2022/08/12 11:02:12;;;;;;;3.58;2.40;;;;;;;26.08;43.76;101916.69;5041887;28;20071;-74
2022/08/12 11:04:39;;;;;;;7.80;2.65;;;;;;;26.17;43.59;101913.16;5042649;28;20039;-75
2022/08/12 11:07:06;;;;;;;4.07;2.63;;;;;;;26.23;42.92;101915.28;5035421;28;20041;-74
2022/08/12 11:09:32;;;;;;;3.05;2.30;;;;;;;26.21;41.98;101910.09;5039847;28;20026;-74
2022/08/12 11:12:01;;;;;;;3.15;2.78;;;;;;;26.30;41.04;101912.91;5039829;28;20036;-74
2022/08/12 11:14:27;;;;;;;5.03;2.65;;;;;;;26.26;40.94;101919.53;5040350;28;20101;-74
2022/08/12 11:16:57;;;;;;;4.38;2.10;;;;;;;26.24;40.76;101909.78;5039514;28;20065;-75
2022/08/12 11:19:26;;;;;;;3.88;2.55;;;;;;;26.27;42.19;101905.13;5040770;28;20140;-74
2022/08/12 11:21:52;;;;;;;14.32;2.45;;;;;;;26.36;41.39;101899.78;5041323;28;20037;-76
2022/08/12 11:24:18;;;;;;;3.88;2.47;;;;;;;26.39;41.72;101896.78;5030152;28;20073;-75
2022/08/12 11:26:44;;;;;;;4.07;2.97;;;;;;;26.40;41.34;101894.97;5040113;28;20270;-75
2022/08/12 11:29:09;;;;;;;2.67;2.40;;;;;;;26.44;41.01;101888.31;5040863;28;20068;-75
2022/08/12 11:31:34;;;;;;;6.40;2.50;;;;;;;26.43;41.95;101891.97;5039888;28;20039;-75
2022/08/12 11:34:00;;;;;;;7.43;2.55;;;;;;;26.43;41.11;101881.25;5036645;28;20038;-74
2022/08/12 11:36:25;;;;;;;3.22;2.50;;;;;;;26.43;41.85;101881.25;5033577;28;20061;-74
2022/08/12 11:38:51;;;;;;;5.60;2.35;;;;;;;26.62;41.26;101883.13;5019104;28;20034;-74
2022/08/12 11:41:18;;;;;;;2.63;2.42;;;;;;;26.56;40.46;101872.91;5038763;28;20053;-74
2022/08/12 11:43:43;;;;;;;12.93;2.72;;;;;;;26.73;39.42;101880.28;5040334;28;20025;-74
2022/08/12 11:46:09;;;;;;;3.72;2.20;;;;;;;26.75;38.84;101872.09;5040913;28;20041;-75
2022/08/12 11:48:38;;;;;;;5.57;2.17;;;;;;;26.72;40.20;101875.03;5040963;28;20040;-75
2022/08/12 11:51:08;;;;;;;3.53;2.15;;;;;;;26.73;40.01;101871.38;5040521;28;20083;-75
2022/08/12 11:53:34;;;;;;;3.58;2.53;;;;;;;26.74;39.84;101859.63;5038919;28;20033;-75
2022/08/12 11:56:00;;;;;;;3.88;2.08;;;;;;;26.77;40.15;101862.03;5040792;28;20068;-75
2022/08/12 11:58:26;;;;;;;2.28;2.17;;;;;;;26.79;39.83;101865.41;5039207;28;20194;-75
2022/08/12 12:00:52;;;;;;;2.47;1.90;;;;;;;26.84;39.27;101857.78;5040266;28;20037;-75
2022/08/12 12:03:18;;;;;;;8.10;2.65;;;;;;;26.87;39.70;101864.69;5040691;28;20346;-74
2022/08/12 12:05:44;;;;;;;6.43;2.42;;;;;;;26.91;39.06;101866.97;5038696;28;20021;-76
2022/08/12 12:08:18;;;;;;;6.00;2.40;;;;;;;26.89;38.83;101865.41;5040892;28;20100;-75
2022/08/12 12:10:43;;;;;;;4.75;2.33;;;;;;;27.03;37.26;101856.88;5039289;28;20343;-75
2022/08/12 12:13:08;;;;;;;4.20;2.53;;;;;;;27.11;36.66;101858.84;5025476;28;20033;-75
2022/08/12 12:15:34;;;;;;;3.47;2.40;;;;;;;27.12;36.62;101855.16;5022146;28;20336;-75
2022/08/12 12:17:59;;;;;;;5.13;2.70;;;;;;;27.23;36.10;101864.88;5019324;28;20130;-75
2022/08/12 12:20:25;;;;;;;9.95;2.33;;;;;;;27.30;36.52;101856.09;5034808;28;20232;-75
2022/08/12 12:22:50;;;;;;;4.75;2.60;;;;;;;27.26;37.05;101856.53;5039621;28;20061;-75
2022/08/12 12:25:15;;;;;;;3.33;2.28;;;;;;;27.22;37.12;101850.59;5040051;28;20033;-75
2022/08/12 12:27:50;;;;;;;9.48;3.05;;;;;;;27.23;36.37;101846.06;5056373;28;20057;-75
2022/08/12 12:30:15;;;;;;;3.90;2.17;;;;;;;27.17;37.67;101842.97;5038592;28;20310;-75
2022/08/12 12:32:41;;;;;;;4.75;2.60;;;;;;;27.16;37.17;101848.47;5039832;28;20407;-75
2022/08/12 12:35:07;;;;;;;5.38;2.47;;;;;;;27.15;38.82;101836.06;5031302;28;20054;-75
2022/08/12 12:37:32;;;;;;;5.40;2.40;;;;;;;27.18;37.30;101839.28;5040871;28;20041;-74
2022/08/12 12:39:58;;;;;;;3.80;1.95;;;;;;;27.28;36.09;101839.28;5025299;28;20036;-75
2022/08/12 12:42:23;;;;;;;3.72;2.40;;;;;;;27.28;37.49;101830.38;5074999;28;20038;-75
2022/08/12 12:44:48;;;;;;;10.10;2.42;;;;;;;27.40;35.97;101831.88;5028755;28;20034;-75
2022/08/12 12:47:15;;;;;;;4.55;2.30;;;;;;;27.39;35.92;101824.78;5061849;28;20166;-74
2022/08/12 12:49:41;;;;;;;2.38;2.17;;;;;;;27.34;37.25;101830.63;5048143;28;20362;-75
2022/08/12 12:52:06;;;;;;;2.90;2.10;;;;;;;27.29;37.23;101822.16;5062392;28;20037;-75
2022/08/12 12:54:32;;;;;;;13.73;2.25;;;;;;;27.33;36.10;101815.47;5048624;28;20363;-75
2022/08/12 12:56:57;;;;;;;7.25;2.30;;;;;;;27.41;36.17;101830.03;5045811;28;20292;-75
2022/08/12 12:59:26;;;;;;;3.20;2.20;;;;;;;27.42;35.78;101818.28;5031105;28;20348;-75
2022/08/12 13:01:52;;;;;;;2.55;2.00;;;;;;;27.44;35.91;101821.66;5047047;28;20025;-75
2022/08/12 13:04:17;;;;;;;3.13;2.30;;;;;;;27.51;34.83;101820.06;5047543;28;20040;-75
2022/08/12 13:06:45;;;;;;;4.00;2.35;;;;;;;27.49;35.20;101814.00;5045514;28;20072;-75
2022/08/12 13:09:12;;;;;;;2.33;2.00;;;;;;;27.47;35.27;101814.16;5047857;28;20056;-74
2022/08/12 13:11:37;;;;;;;6.47;2.83;;;;;;;27.45;36.71;101802.69;5046918;28;20033;-75
2022/08/12 13:14:04;;;;;;;2.88;2.38;;;;;;;27.46;36.09;101808.91;5048263;28;20112;-75
2022/08/12 13:16:29;;;;;;;9.10;2.58;;;;;;;27.44;36.30;101811.75;5042180;28;20102;-75
2022/08/12 13:18:56;;;;;;;5.13;2.28;;;;;;;27.49;35.71;101805.94;5042718;28;20097;-75